sensor_id;sensor_type;location;lat;lon;timestamp;pressure;altitude;pressure_sealevel;temperature;humidity
81680;BME280;74989;52.210;5.148;2024-03-02T00:00:38;99768.09;;;9.07;68.66
81680;BME280;74989;52.210;5.148;2024-03-02T00:03:06;99789.38;;;8.95;69.93
81680;BME280;74989;52.210;5.148;2024-03-02T00:05:36;99783.72;;;8.77;70.09
81680;BME280;74989;52.210;5.148;2024-03-02T00:08:04;99796.66;;;8.78;69.60
81680;BME280;74989;52.210;5.148;2024-03-02T00:10:36;99812.19;;;8.80;70.02
81680;BME280;74989;52.210;5.148;2024-03-02T00:13:05;99813.47;;;8.72;70.11
81680;BME280;74989;52.210;5.148;2024-03-02T00:15:52;99830.13;;;8.83;69.30
81680;BME280;74989;52.210;5.148;2024-03-02T00:18:20;99862.81;;;8.87;70.01
81680;BME280;74989;52.210;5.148;2024-03-02T00:20:48;99868.94;;;8.92;69.23
81680;BME280;74989;52.210;5.148;2024-03-02T00:23:16;99892.16;;;8.95;69.45
81680;BME280;74989;52.210;5.148;2024-03-02T00:25:44;99907.16;;;8.95;69.83
81680;BME280;74989;52.210;5.148;2024-03-02T00:28:16;99906.28;;;8.84;71.64
81680;BME280;74989;52.210;5.148;2024-03-02T00:30:58;99900.38;;;8.67;72.73
81680;BME280;74989;52.210;5.148;2024-03-02T00:33:27;99888.88;;;8.52;73.53
81680;BME280;74989;52.210;5.148;2024-03-02T00:35:55;99903.66;;;8.53;74.46
81680;BME280;74989;52.210;5.148;2024-03-02T00:38:23;99912.47;;;8.37;75.21
81680;BME280;74989;52.210;5.148;2024-03-02T00:40:50;99911.47;;;8.21;76.26
81680;BME280;74989;52.210;5.148;2024-03-02T00:43:43;99912.47;;;8.15;77.04
81680;BME280;74989;52.210;5.148;2024-03-02T00:46:12;99902.88;;;8.04;78.08
81680;BME280;74989;52.210;5.148;2024-03-02T00:48:39;99903.63;;;7.99;77.93
81680;BME280;74989;52.210;5.148;2024-03-02T00:51:11;99910.78;;;7.82;78.91
81680;BME280;74989;52.210;5.148;2024-03-02T00:53:38;99902.78;;;7.72;79.84
81680;BME280;74989;52.210;5.148;2024-03-02T00:56:09;99916.72;;;7.73;80.18
81680;BME280;74989;52.210;5.148;2024-03-02T00:58:35;99917.94;;;7.65;80.40
81680;BME280;74989;52.210;5.148;2024-03-02T01:01:02;99931.03;;;7.60;80.74
81680;BME280;74989;52.210;5.148;2024-03-02T01:03:29;99926.31;;;7.62;81.17
81680;BME280;74989;52.210;5.148;2024-03-02T01:05:57;99917.09;;;7.59;81.36
81680;BME280;74989;52.210;5.148;2024-03-02T01:08:25;99917.50;;;7.51;81.43
81680;BME280;74989;52.210;5.148;2024-03-02T01:10:51;99910.09;;;7.48;81.25
81680;BME280;74989;52.210;5.148;2024-03-02T01:13:18;99899.38;;;7.50;81.72
81680;BME280;74989;52.210;5.148;2024-03-02T01:15:45;99903.41;;;7.41;81.51
81680;BME280;74989;52.210;5.148;2024-03-02T01:18:12;99921.50;;;7.54;81.04
81680;BME280;74989;52.210;5.148;2024-03-02T01:20:39;99920.13;;;7.51;80.79
81680;BME280;74989;52.210;5.148;2024-03-02T01:23:06;99927.78;;;7.53;80.59
81680;BME280;74989;52.210;5.148;2024-03-02T01:25:34;99920.22;;;7.56;80.55
81680;BME280;74989;52.210;5.148;2024-03-02T01:28:01;99932.56;;;7.56;80.76
81680;BME280;74989;52.210;5.148;2024-03-02T01:30:27;99936.22;;;7.55;80.38
81680;BME280;74989;52.210;5.148;2024-03-02T01:32:54;99934.09;;;7.52;80.91
81680;BME280;74989;52.210;5.148;2024-03-02T01:35:21;99922.16;;;7.44;81.50
81680;BME280;74989;52.210;5.148;2024-03-02T01:37:47;99926.19;;;7.52;81.10
81680;BME280;74989;52.210;5.148;2024-03-02T01:40:14;99929.31;;;7.49;81.17
81680;BME280;74989;52.210;5.148;2024-03-02T01:42:43;99930.41;;;7.53;81.59
81680;BME280;74989;52.210;5.148;2024-03-02T01:45:10;99925.06;;;7.48;81.42
81680;BME280;74989;52.210;5.148;2024-03-02T01:47:37;99921.34;;;7.44;81.82
81680;BME280;74989;52.210;5.148;2024-03-02T01:50:04;99926.59;;;7.44;81.70
81680;BME280;74989;52.210;5.148;2024-03-02T01:52:30;99939.75;;;7.44;81.60
81680;BME280;74989;52.210;5.148;2024-03-02T01:54:57;99938.19;;;7.43;81.74
81680;BME280;74989;52.210;5.148;2024-03-02T01:57:24;99949.16;;;7.40;81.71
81680;BME280;74989;52.210;5.148;2024-03-02T01:59:52;99949.63;;;7.37;81.52
81680;BME280;74989;52.210;5.148;2024-03-02T02:02:19;99956.41;;;7.33;81.82
81680;BME280;74989;52.210;5.148;2024-03-02T02:04:46;99955.06;;;7.30;82.23
81680;BME280;74989;52.210;5.148;2024-03-02T02:07:13;99949.00;;;7.30;82.08
81680;BME280;74989;52.210;5.148;2024-03-02T02:09:41;99945.84;;;7.28;81.98
81680;BME280;74989;52.210;5.148;2024-03-02T02:12:08;99945.75;;;7.23;82.73
81680;BME280;74989;52.210;5.148;2024-03-02T02:14:35;99943.59;;;7.20;82.86
81680;BME280;74989;52.210;5.148;2024-03-02T02:17:03;99947.75;;;7.16;83.29
81680;BME280;74989;52.210;5.148;2024-03-02T02:19:30;99965.28;;;7.10;83.37
81680;BME280;74989;52.210;5.148;2024-03-02T02:21:58;99953.97;;;7.10;83.12
81680;BME280;74989;52.210;5.148;2024-03-02T02:24:25;99933.34;;;7.02;83.65
81680;BME280;74989;52.210;5.148;2024-03-02T02:26:51;99934.16;;;7.02;84.17
81680;BME280;74989;52.210;5.148;2024-03-02T02:29:18;99935.34;;;7.11;83.41
81680;BME280;74989;52.210;5.148;2024-03-02T02:31:44;99934.53;;;7.11;82.94
81680;BME280;74989;52.210;5.148;2024-03-02T02:34:11;99937.03;;;7.01;83.55
81680;BME280;74989;52.210;5.148;2024-03-02T02:36:38;99943.06;;;7.01;83.26
81680;BME280;74989;52.210;5.148;2024-03-02T02:39:09;99939.66;;;7.01;83.04
81680;BME280;74989;52.210;5.148;2024-03-02T02:41:38;99965.59;;;6.97;83.83
81680;BME280;74989;52.210;5.148;2024-03-02T02:44:05;99954.53;;;6.95;84.11
81680;BME280;74989;52.210;5.148;2024-03-02T02:46:34;99934.53;;;6.94;83.79
81680;BME280;74989;52.210;5.148;2024-03-02T02:49:00;99953.00;;;6.99;83.67
81680;BME280;74989;52.210;5.148;2024-03-02T02:51:27;99949.03;;;6.97;83.71
81680;BME280;74989;52.210;5.148;2024-03-02T02:53:54;99947.94;;;6.92;83.76
81680;BME280;74989;52.210;5.148;2024-03-02T02:56:22;99948.47;;;6.94;83.47
81680;BME280;74989;52.210;5.148;2024-03-02T02:58:48;99960.03;;;6.93;83.70
81680;BME280;74989;52.210;5.148;2024-03-02T03:01:15;99943.94;;;6.90;83.33
81680;BME280;74989;52.210;5.148;2024-03-02T03:03:43;99954.53;;;6.95;83.67
81680;BME280;74989;52.210;5.148;2024-03-02T03:06:10;99951.59;;;6.91;83.65
81680;BME280;74989;52.210;5.148;2024-03-02T03:08:36;99941.78;;;6.87;83.34
81680;BME280;74989;52.210;5.148;2024-03-02T03:11:03;99940.47;;;6.84;83.59
81680;BME280;74989;52.210;5.148;2024-03-02T03:13:31;99952.63;;;6.90;83.34
81680;BME280;74989;52.210;5.148;2024-03-02T03:15:58;99960.03;;;6.93;83.40
81680;BME280;74989;52.210;5.148;2024-03-02T03:18:25;99959.78;;;6.95;82.68
81680;BME280;74989;52.210;5.148;2024-03-02T03:20:52;99951.91;;;6.95;82.88
81680;BME280;74989;52.210;5.148;2024-03-02T03:23:18;99964.56;;;6.98;82.27
81680;BME280;74989;52.210;5.148;2024-03-02T03:25:46;99969.28;;;6.96;82.64
81680;BME280;74989;52.210;5.148;2024-03-02T03:28:12;99962.66;;;6.93;82.75
81680;BME280;74989;52.210;5.148;2024-03-02T03:30:40;99969.50;;;6.94;82.64
81680;BME280;74989;52.210;5.148;2024-03-02T03:33:07;99940.13;;;6.81;82.28
81680;BME280;74989;52.210;5.148;2024-03-02T03:35:34;99957.97;;;6.96;82.67
81680;BME280;74989;52.210;5.148;2024-03-02T03:38:01;99968.22;;;6.97;81.56
81680;BME280;74989;52.210;5.148;2024-03-02T03:40:27;99974.53;;;6.96;81.80
81680;BME280;74989;52.210;5.148;2024-03-02T03:42:54;99962.41;;;6.95;81.38
81680;BME280;74989;52.210;5.148;2024-03-02T03:45:22;99974.03;;;6.99;81.28
81680;BME280;74989;52.210;5.148;2024-03-02T03:47:53;99978.56;;;7.04;81.21
81680;BME280;74989;52.210;5.148;2024-03-02T03:50:19;99982.78;;;7.05;81.30
81680;BME280;74989;52.210;5.148;2024-03-02T03:52:46;99984.44;;;7.11;80.61
81680;BME280;74989;52.210;5.148;2024-03-02T03:55:13;99983.59;;;7.05;80.76
81680;BME280;74989;52.210;5.148;2024-03-02T03:57:40;99999.19;;;7.12;80.66
81680;BME280;74989;52.210;5.148;2024-03-02T04:00:07;99970.13;;;7.02;80.87
81680;BME280;74989;52.210;5.148;2024-03-02T04:02:38;99993.38;;;7.10;81.22
81680;BME280;74989;52.210;5.148;2024-03-02T04:05:07;99988.28;;;7.20;80.57
81680;BME280;74989;52.210;5.148;2024-03-02T04:07:36;99996.16;;;7.20;80.19
81680;BME280;74989;52.210;5.148;2024-03-02T04:10:09;99981.53;;;7.07;80.10
81680;BME280;74989;52.210;5.148;2024-03-02T04:12:37;99995.28;;;7.14;80.43
81680;BME280;74989;52.210;5.148;2024-03-02T04:15:05;99991.88;;;7.14;80.10
81680;BME280;74989;52.210;5.148;2024-03-02T04:17:33;99995.50;;;7.29;79.47
81680;BME280;74989;52.210;5.148;2024-03-02T04:20:01;99992.16;;;7.34;79.38
81680;BME280;74989;52.210;5.148;2024-03-02T04:22:32;99994.41;;;7.25;79.75
81680;BME280;74989;52.210;5.148;2024-03-02T04:25:00;100002.00;;;7.22;79.77
81680;BME280;74989;52.210;5.148;2024-03-02T04:27:27;99999.59;;;7.20;80.35
81680;BME280;74989;52.210;5.148;2024-03-02T04:29:54;99987.16;;;7.16;80.47
81680;BME280;74989;52.210;5.148;2024-03-02T04:32:20;99984.31;;;7.17;80.30
81680;BME280;74989;52.210;5.148;2024-03-02T04:34:47;99997.59;;;7.27;79.42
81680;BME280;74989;52.210;5.148;2024-03-02T04:37:14;100001.19;;;7.21;79.35
81680;BME280;74989;52.210;5.148;2024-03-02T04:39:42;99994.88;;;7.22;79.98
81680;BME280;74989;52.210;5.148;2024-03-02T04:42:08;99979.75;;;7.13;79.89
81680;BME280;74989;52.210;5.148;2024-03-02T04:44:35;99998.63;;;7.10;79.37
81680;BME280;74989;52.210;5.148;2024-03-02T04:47:03;100009.38;;;7.08;80.11
81680;BME280;74989;52.210;5.148;2024-03-02T04:49:30;99993.75;;;7.02;79.53
81680;BME280;74989;52.210;5.148;2024-03-02T04:51:56;100004.06;;;7.03;79.44
81680;BME280;74989;52.210;5.148;2024-03-02T04:54:23;100008.41;;;6.98;80.01
81680;BME280;74989;52.210;5.148;2024-03-02T04:56:51;100014.38;;;6.93;80.15
81680;BME280;74989;52.210;5.148;2024-03-02T04:59:17;100020.16;;;6.78;80.32
81680;BME280;74989;52.210;5.148;2024-03-02T05:01:44;100031.31;;;6.85;80.52
81680;BME280;74989;52.210;5.148;2024-03-02T05:04:11;100034.41;;;6.82;80.43
81680;BME280;74989;52.210;5.148;2024-03-02T05:06:50;100040.72;;;6.81;80.65
81680;BME280;74989;52.210;5.148;2024-03-02T05:09:20;100035.00;;;6.84;80.48
81680;BME280;74989;52.210;5.148;2024-03-02T05:11:46;100025.50;;;6.83;80.30
81680;BME280;74989;52.210;5.148;2024-03-02T05:14:32;100026.78;;;6.81;80.26
81680;BME280;74989;52.210;5.148;2024-03-02T05:16:59;100035.81;;;6.73;80.67
81680;BME280;74989;52.210;5.148;2024-03-02T05:19:25;100032.88;;;6.70;80.36
81680;BME280;74989;52.210;5.148;2024-03-02T05:21:52;100038.69;;;6.72;80.11
81680;BME280;74989;52.210;5.148;2024-03-02T05:24:19;100039.09;;;6.52;81.15
81680;BME280;74989;52.210;5.148;2024-03-02T05:26:46;100043.66;;;6.57;80.72
81680;BME280;74989;52.210;5.148;2024-03-02T05:29:12;100040.16;;;6.51;80.69
81680;BME280;74989;52.210;5.148;2024-03-02T05:31:41;100042.91;;;6.45;80.94
81680;BME280;74989;52.210;5.148;2024-03-02T05:34:07;100043.13;;;6.43;80.95
81680;BME280;74989;52.210;5.148;2024-03-02T05:36:34;100042.56;;;6.41;80.75
81680;BME280;74989;52.210;5.148;2024-03-02T05:39:01;100042.47;;;6.36;80.78
81680;BME280;74989;52.210;5.148;2024-03-02T05:41:30;100050.34;;;6.36;80.99
81680;BME280;74989;52.210;5.148;2024-03-02T05:43:56;100045.38;;;6.23;80.98
81680;BME280;74989;52.210;5.148;2024-03-02T05:46:23;100060.84;;;6.36;80.81
81680;BME280;74989;52.210;5.148;2024-03-02T05:48:51;100062.59;;;6.31;80.61
81680;BME280;74989;52.210;5.148;2024-03-02T05:51:18;100058.69;;;6.33;80.88
81680;BME280;74989;52.210;5.148;2024-03-02T05:53:44;100062.59;;;6.31;81.13
81680;BME280;74989;52.210;5.148;2024-03-02T05:56:11;100062.22;;;6.39;80.74
81680;BME280;74989;52.210;5.148;2024-03-02T05:58:38;100061.28;;;6.45;80.06
81680;BME280;74989;52.210;5.148;2024-03-02T06:01:18;100057.09;;;6.32;79.69
81680;BME280;74989;52.210;5.148;2024-03-02T06:03:45;100063.91;;;6.33;80.02
81680;BME280;74989;52.210;5.148;2024-03-02T06:06:13;100073.25;;;6.41;79.76
81680;BME280;74989;52.210;5.148;2024-03-02T06:08:39;100069.03;;;6.51;78.95
81680;BME280;74989;52.210;5.148;2024-03-02T06:11:06;100070.16;;;6.55;78.09
81680;BME280;74989;52.210;5.148;2024-03-02T06:13:33;100062.94;;;6.62;77.52
81680;BME280;74989;52.210;5.148;2024-03-02T06:15:59;100075.34;;;6.67;78.09
81680;BME280;74989;52.210;5.148;2024-03-02T06:18:26;100070.66;;;6.69;77.87
81680;BME280;74989;52.210;5.148;2024-03-02T06:20:53;100068.13;;;6.74;77.81
81680;BME280;74989;52.210;5.148;2024-03-02T06:23:21;100065.75;;;6.72;77.52
81680;BME280;74989;52.210;5.148;2024-03-02T06:25:48;100075.88;;;6.80;77.78
81680;BME280;74989;52.210;5.148;2024-03-02T06:28:14;100083.28;;;6.83;77.91
81680;BME280;74989;52.210;5.148;2024-03-02T06:30:41;100082.81;;;6.86;77.42
81680;BME280;74989;52.210;5.148;2024-03-02T06:33:08;100080.41;;;6.85;77.46
81680;BME280;74989;52.210;5.148;2024-03-02T06:35:35;100080.66;;;6.83;77.92
81680;BME280;74989;52.210;5.148;2024-03-02T06:38:02;100085.63;;;6.97;77.12
81680;BME280;74989;52.210;5.148;2024-03-02T06:40:30;100089.28;;;6.96;76.70
81680;BME280;74989;52.210;5.148;2024-03-02T06:42:57;100086.22;;;6.87;77.19
81680;BME280;74989;52.210;5.148;2024-03-02T06:45:23;100087.13;;;6.92;76.78
81680;BME280;74989;52.210;5.148;2024-03-02T06:47:50;100102.88;;;6.92;77.22
81680;BME280;74989;52.210;5.148;2024-03-02T06:50:17;100097.72;;;6.98;76.97
81680;BME280;74989;52.210;5.148;2024-03-02T06:52:43;100089.84;;;6.98;76.90
81680;BME280;74989;52.210;5.148;2024-03-02T06:55:10;100090.75;;;7.03;76.43
81680;BME280;74989;52.210;5.148;2024-03-02T06:57:38;100090.34;;;7.11;75.51
81680;BME280;74989;52.210;5.148;2024-03-02T07:00:06;100080.88;;;7.10;76.36
81680;BME280;74989;52.210;5.148;2024-03-02T07:02:34;100083.91;;;7.19;76.29
81680;BME280;74989;52.210;5.148;2024-03-02T07:05:02;100084.38;;;7.16;75.04
81680;BME280;74989;52.210;5.148;2024-03-02T07:07:29;100090.38;;;7.28;74.86
81680;BME280;74989;52.210;5.148;2024-03-02T07:09:56;100090.28;;;7.73;75.48
81680;BME280;74989;52.210;5.148;2024-03-02T07:12:22;100087.31;;;8.41;73.37
81680;BME280;74989;52.210;5.148;2024-03-02T07:14:51;100074.00;;;8.74;71.75
81680;BME280;74989;52.210;5.148;2024-03-02T07:17:37;100077.53;;;8.84;69.35
81680;BME280;74989;52.210;5.148;2024-03-02T07:20:05;100090.94;;;9.36;69.07
81680;BME280;74989;52.210;5.148;2024-03-02T07:22:32;100091.59;;;9.90;67.40
81680;BME280;74989;52.210;5.148;2024-03-02T07:24:59;100091.00;;;10.20;63.59
81680;BME280;74989;52.210;5.148;2024-03-02T07:27:30;100087.94;;;10.38;64.47
81680;BME280;74989;52.210;5.148;2024-03-02T07:29:58;100083.97;;;10.46;62.63
81680;BME280;74989;52.210;5.148;2024-03-02T07:32:25;100092.44;;;10.53;62.06
81680;BME280;74989;52.210;5.148;2024-03-02T07:34:52;100101.19;;;10.53;61.73
81680;BME280;74989;52.210;5.148;2024-03-02T07:37:18;100113.22;;;10.24;62.99
81680;BME280;74989;52.210;5.148;2024-03-02T07:39:45;100104.03;;;9.95;63.56
81680;BME280;74989;52.210;5.148;2024-03-02T07:42:12;100125.81;;;9.80;63.34
81680;BME280;74989;52.210;5.148;2024-03-02T07:44:39;100098.97;;;9.51;64.17
81680;BME280;74989;52.210;5.148;2024-03-02T07:47:07;100123.06;;;9.33;66.09
81680;BME280;74989;52.210;5.148;2024-03-02T07:49:34;100122.28;;;9.06;66.19
81680;BME280;74989;52.210;5.148;2024-03-02T07:52:01;100126.34;;;8.92;66.35
81680;BME280;74989;52.210;5.148;2024-03-02T07:54:27;100128.50;;;8.73;67.70
81680;BME280;74989;52.210;5.148;2024-03-02T07:56:55;100111.97;;;8.56;68.21
81680;BME280;74989;52.210;5.148;2024-03-02T07:59:22;100133.78;;;8.52;67.77
81680;BME280;74989;52.210;5.148;2024-03-02T08:01:52;100131.00;;;8.42;68.29
81680;BME280;74989;52.210;5.148;2024-03-02T08:04:22;100135.78;;;8.45;68.59
81680;BME280;74989;52.210;5.148;2024-03-02T08:06:51;100121.78;;;8.39;69.22
81680;BME280;74989;52.210;5.148;2024-03-02T08:09:19;100142.28;;;8.59;68.07
81680;BME280;74989;52.210;5.148;2024-03-02T08:11:46;100140.28;;;8.66;68.82
81680;BME280;74989;52.210;5.148;2024-03-02T08:14:13;100137.22;;;8.95;68.33
81680;BME280;74989;52.210;5.148;2024-03-02T08:16:40;100125.41;;;9.30;66.76
81680;BME280;74989;52.210;5.148;2024-03-02T08:19:07;100143.53;;;10.16;64.85
81680;BME280;74989;52.210;5.148;2024-03-02T08:21:36;100130.19;;;10.38;62.85
81680;BME280;74989;52.210;5.148;2024-03-02T08:24:04;100135.91;;;10.82;63.13
81680;BME280;74989;52.210;5.148;2024-03-02T08:26:31;100120.91;;;11.07;62.43
81680;BME280;74989;52.210;5.148;2024-03-02T08:28:58;100132.59;;;11.57;58.57
81680;BME280;74989;52.210;5.148;2024-03-02T08:31:27;100119.38;;;11.87;60.87
81680;BME280;74989;52.210;5.148;2024-03-02T08:33:53;100128.03;;;12.33;56.59
81680;BME280;74989;52.210;5.148;2024-03-02T08:36:20;100125.78;;;12.70;57.60
81680;BME280;74989;52.210;5.148;2024-03-02T08:38:49;100115.16;;;13.24;56.34
81680;BME280;74989;52.210;5.148;2024-03-02T08:41:21;100098.31;;;13.72;53.93
81680;BME280;74989;52.210;5.148;2024-03-02T08:43:48;100104.78;;;13.90;51.50
81680;BME280;74989;52.210;5.148;2024-03-02T08:46:15;100104.88;;;13.80;51.92
81680;BME280;74989;52.210;5.148;2024-03-02T08:48:42;100121.13;;;14.02;51.87
81680;BME280;74989;52.210;5.148;2024-03-02T08:51:09;100099.38;;;14.24;53.66
81680;BME280;74989;52.210;5.148;2024-03-02T08:53:36;100118.06;;;14.85;49.59
81680;BME280;74989;52.210;5.148;2024-03-02T08:56:04;100100.97;;;15.09;49.85
81680;BME280;74989;52.210;5.148;2024-03-02T08:58:32;100115.97;;;15.00;49.91
81680;BME280;74989;52.210;5.148;2024-03-02T09:00:59;100112.41;;;15.47;48.91
81680;BME280;74989;52.210;5.148;2024-03-02T09:03:26;100121.19;;;15.61;48.09
81680;BME280;74989;52.210;5.148;2024-03-02T09:05:52;100125.28;;;15.59;48.58
81680;BME280;74989;52.210;5.148;2024-03-02T09:08:19;100125.34;;;15.86;48.65
81680;BME280;74989;52.210;5.148;2024-03-02T09:10:46;100133.66;;;16.12;46.71
81680;BME280;74989;52.210;5.148;2024-03-02T09:13:14;100124.78;;;16.03;46.39
81680;BME280;74989;52.210;5.148;2024-03-02T09:15:41;100131.22;;;16.29;46.49
81680;BME280;74989;52.210;5.148;2024-03-02T09:18:08;100131.84;;;16.67;44.41
81680;BME280;74989;52.210;5.148;2024-03-02T09:20:35;100140.91;;;16.38;44.95
81680;BME280;74989;52.210;5.148;2024-03-02T09:23:02;100144.56;;;16.56;44.89
81680;BME280;74989;52.210;5.148;2024-03-02T09:25:28;100139.13;;;16.75;45.49
81680;BME280;74989;52.210;5.148;2024-03-02T09:27:55;100147.06;;;16.66;44.41
81680;BME280;74989;52.210;5.148;2024-03-02T09:30:23;100155.84;;;16.80;45.26
81680;BME280;74989;52.210;5.148;2024-03-02T09:32:50;100135.66;;;17.24;42.68
81680;BME280;74989;52.210;5.148;2024-03-02T09:35:16;100147.47;;;17.09;42.50
81680;BME280;74989;52.210;5.148;2024-03-02T09:37:43;100131.63;;;16.49;43.81
81680;BME280;74989;52.210;5.148;2024-03-02T09:40:11;100139.31;;;16.92;42.16
81680;BME280;74989;52.210;5.148;2024-03-02T09:42:38;100136.94;;;16.77;42.96
81680;BME280;74989;52.210;5.148;2024-03-02T09:45:09;100146.66;;;16.59;42.48
81680;BME280;74989;52.210;5.148;2024-03-02T09:47:45;100139.53;;;16.68;42.96
81680;BME280;74989;52.210;5.148;2024-03-02T09:50:12;100121.34;;;16.70;43.63
81680;BME280;74989;52.210;5.148;2024-03-02T09:52:42;100134.69;;;16.70;42.65
81680;BME280;74989;52.210;5.148;2024-03-02T09:55:09;100123.19;;;16.83;44.46
81680;BME280;74989;52.210;5.148;2024-03-02T09:57:47;100117.75;;;16.88;43.34
81680;BME280;74989;52.210;5.148;2024-03-02T10:00:18;100118.06;;;16.32;43.79
81680;BME280;74989;52.210;5.148;2024-03-02T10:02:56;100145.28;;;15.56;45.95
81680;BME280;74989;52.210;5.148;2024-03-02T10:05:25;100145.13;;;15.29;44.69
81680;BME280;74989;52.210;5.148;2024-03-02T10:08:00;100151.28;;;14.87;44.84
81680;BME280;74989;52.210;5.148;2024-03-02T10:10:38;100136.28;;;14.02;46.62
81680;BME280;74989;52.210;5.148;2024-03-02T10:13:08;100144.84;;;14.22;47.16
81680;BME280;74989;52.210;5.148;2024-03-02T10:15:35;100141.09;;;14.94;47.30
81680;BME280;74989;52.210;5.148;2024-03-02T10:18:07;100140.09;;;15.78;44.42
81680;BME280;74989;52.210;5.148;2024-03-02T10:20:49;100131.94;;;16.62;42.06
81680;BME280;74989;52.210;5.148;2024-03-02T10:23:17;100147.91;;;16.89;42.54
81680;BME280;74989;52.210;5.148;2024-03-02T10:25:47;100129.22;;;17.47;40.92
81680;BME280;74989;52.210;5.148;2024-03-02T10:28:15;100122.47;;;17.63;40.07
81680;BME280;74989;52.210;5.148;2024-03-02T10:31:02;100111.41;;;18.17;39.28
81680;BME280;74989;52.210;5.148;2024-03-02T10:33:41;100119.44;;;18.48;38.22
81680;BME280;74989;52.210;5.148;2024-03-02T10:36:11;100121.06;;;18.83;37.41
81680;BME280;74989;52.210;5.148;2024-03-02T10:38:59;100097.59;;;18.80;36.88
81680;BME280;74989;52.210;5.148;2024-03-02T10:41:39;100093.22;;;18.93;36.75
81680;BME280;74989;52.210;5.148;2024-03-02T10:44:14;100119.25;;;19.52;37.11
81680;BME280;74989;52.210;5.148;2024-03-02T10:47:01;100111.47;;;20.14;35.47
81680;BME280;74989;52.210;5.148;2024-03-02T10:49:31;100102.25;;;20.41;33.65
81680;BME280;74989;52.210;5.148;2024-03-02T10:52:08;100077.75;;;19.58;35.52
81680;BME280;74989;52.210;5.148;2024-03-02T10:54:47;100088.38;;;19.93;35.39
81680;BME280;74989;52.210;5.148;2024-03-02T10:57:30;100079.97;;;20.03;34.02
81680;BME280;74989;52.210;5.148;2024-03-02T11:00:04;100081.94;;;19.76;36.21
81680;BME280;74989;52.210;5.148;2024-03-02T11:02:50;100099.22;;;20.42;35.71
81680;BME280;74989;52.210;5.148;2024-03-02T11:05:27;100098.25;;;20.76;33.43
81680;BME280;74989;52.210;5.148;2024-03-02T11:08:08;100101.88;;;20.51;32.58
81680;BME280;74989;52.210;5.148;2024-03-02T11:10:48;100070.66;;;20.38;35.65
81680;BME280;74989;52.210;5.148;2024-03-02T11:13:22;100079.88;;;20.99;34.07
81680;BME280;74989;52.210;5.148;2024-03-02T11:16:02;100087.28;;;21.43;33.51
81680;BME280;74989;52.210;5.148;2024-03-02T11:18:50;100093.19;;;21.37;32.40
81680;BME280;74989;52.210;5.148;2024-03-02T11:21:25;100112.19;;;20.90;31.06
81680;BME280;74989;52.210;5.148;2024-03-02T11:27:14;100097.69;;;21.12;32.62
81680;BME280;74989;52.210;5.148;2024-03-02T11:30:50;100085.50;;;21.14;32.69
81680;BME280;74989;52.210;5.148;2024-03-02T11:33:24;100092.63;;;21.64;32.42
81680;BME280;74989;52.210;5.148;2024-03-02T11:36:00;100096.75;;;21.61;31.95
81680;BME280;74989;52.210;5.148;2024-03-02T11:38:43;100079.03;;;21.60;31.62
81680;BME280;74989;52.210;5.148;2024-03-02T11:41:11;100093.81;;;21.66;30.70
81680;BME280;74989;52.210;5.148;2024-03-02T11:43:43;100072.97;;;21.51;31.13
81680;BME280;74989;52.210;5.148;2024-03-02T11:46:33;100052.28;;;21.31;32.73
81680;BME280;74989;52.210;5.148;2024-03-02T11:49:05;100066.03;;;21.62;30.38
81680;BME280;74989;52.210;5.148;2024-03-02T11:51:35;100084.00;;;21.05;30.89
81680;BME280;74989;52.210;5.148;2024-03-02T11:54:04;100081.41;;;20.67;30.63
81680;BME280;74989;52.210;5.148;2024-03-02T11:56:33;100066.03;;;20.09;32.91
81680;BME280;74989;52.210;5.148;2024-03-02T11:59:08;100085.53;;;20.35;32.89
81680;BME280;74989;52.210;5.148;2024-03-02T12:01:35;100050.53;;;20.23;31.86
81680;BME280;74989;52.210;5.148;2024-03-02T12:04:08;100088.75;;;20.12;31.92
81680;BME280;74989;52.210;5.148;2024-03-02T12:06:36;100081.56;;;20.04;32.49
81680;BME280;74989;52.210;5.148;2024-03-02T12:09:05;100075.13;;;20.63;33.64
81680;BME280;74989;52.210;5.148;2024-03-02T13:24:24;100009.56;;;19.04;31.83
81680;BME280;74989;52.210;5.148;2024-03-02T13:26:53;100022.59;;;18.37;33.64
81680;BME280;74989;52.210;5.148;2024-03-02T13:29:22;100016.88;;;17.74;34.65
81680;BME280;74989;52.210;5.148;2024-03-02T13:31:49;100016.28;;;17.02;36.36
81680;BME280;74989;52.210;5.148;2024-03-02T13:34:16;100017.91;;;16.40;37.98
81680;BME280;74989;52.210;5.148;2024-03-02T13:36:43;100025.66;;;16.14;39.15
81680;BME280;74989;52.210;5.148;2024-03-02T13:39:09;100012.84;;;15.89;39.48
81680;BME280;74989;52.210;5.148;2024-03-02T13:41:37;100019.63;;;15.68;40.48
81680;BME280;74989;52.210;5.148;2024-03-02T13:44:04;99994.97;;;15.44;41.31
81680;BME280;74989;52.210;5.148;2024-03-02T13:46:31;100010.25;;;15.38;41.02
81680;BME280;74989;52.210;5.148;2024-03-02T13:48:58;100012.84;;;15.11;40.98
81680;BME280;74989;52.210;5.148;2024-03-02T13:51:24;100017.28;;;14.83;42.12
81680;BME280;74989;52.210;5.148;2024-03-02T13:53:52;99998.78;;;14.73;42.55
81680;BME280;74989;52.210;5.148;2024-03-02T13:56:19;100013.03;;;14.64;43.32
81680;BME280;74989;52.210;5.148;2024-03-02T13:58:48;99993.34;;;14.46;43.54
81680;BME280;74989;52.210;5.148;2024-03-02T14:01:15;100008.84;;;14.39;43.63
81680;BME280;74989;52.210;5.148;2024-03-02T14:03:41;99999.13;;;14.29;44.56
81680;BME280;74989;52.210;5.148;2024-03-02T14:06:08;100000.09;;;14.15;44.76
81680;BME280;74989;52.210;5.148;2024-03-02T14:08:35;100005.38;;;13.96;46.72
81680;BME280;74989;52.210;5.148;2024-03-02T14:11:02;100004.50;;;14.01;46.69
81680;BME280;74989;52.210;5.148;2024-03-02T14:13:28;100003.22;;;13.98;46.28
81680;BME280;74989;52.210;5.148;2024-03-02T14:15:56;99991.75;;;13.79;46.85
81680;BME280;74989;52.210;5.148;2024-03-02T14:18:23;99985.06;;;13.82;47.04
81680;BME280;74989;52.210;5.148;2024-03-02T14:20:50;99977.44;;;13.75;47.36
81680;BME280;74989;52.210;5.148;2024-03-02T14:23:18;99968.78;;;13.64;47.40
81680;BME280;74989;52.210;5.148;2024-03-02T14:25:44;99970.44;;;13.60;47.51